sensor_id;sensor_type;location;lat;lon;timestamp;P1;durP1;ratioP1;P2;durP2;ratioP2
18893;SDS011;9579;49.488;8.226;2022-08-11T05:04:03;4.03;;;3.47;;
18893;SDS011;9579;49.488;8.226;2022-08-11T05:11:06;4.85;;;3.58;;
18893;SDS011;9579;49.488;8.226;2022-08-11T05:14:23;4.85;;;3.78;;
18893;SDS011;9579;49.488;8.226;2022-08-11T05:17:53;4.00;;;3.70;;
18893;SDS011;9579;49.488;8.226;2022-08-11T05:21:02;4.95;;;3.60;;
18893;SDS011;9579;49.488;8.226;2022-08-11T05:24:11;4.18;;;3.78;;
18893;SDS011;9579;49.488;8.226;2022-08-11T05:27:22;4.45;;;4.05;;
18893;SDS011;9579;49.488;8.226;2022-08-11T05:30:37;4.82;;;4.03;;
18893;SDS011;9579;49.488;8.226;2022-08-11T05:33:46;4.60;;;4.20;;
18893;SDS011;9579;49.488;8.226;2022-08-11T05:36:54;3.80;;;3.50;;
18893;SDS011;9579;49.488;8.226;2022-08-11T05:39:48;4.38;;;3.70;;
18893;SDS011;9579;49.488;8.226;2022-08-11T05:42:55;5.22;;;3.70;;
18893;SDS011;9579;49.488;8.226;2022-08-11T05:46:03;3.60;;;3.30;;
18893;SDS011;9579;49.488;8.226;2022-08-11T05:49:11;4.05;;;3.40;;
18893;SDS011;9579;49.488;8.226;2022-08-11T05:52:20;4.00;;;3.50;;
18893;SDS011;9579;49.488;8.226;2022-08-11T05:55:27;3.97;;;3.28;;
18893;SDS011;9579;49.488;8.226;2022-08-11T05:58:33;3.67;;;3.38;;
18893;SDS011;9579;49.488;8.226;2022-08-11T06:01:21;4.63;;;3.55;;
18893;SDS011;9579;49.488;8.226;2022-08-11T06:04:14;5.43;;;3.38;;
18893;SDS011;9579;49.488;8.226;2022-08-11T06:07:04;6.03;;;4.03;;
18893;SDS011;9579;49.488;8.226;2022-08-11T06:09:54;5.10;;;3.80;;
18893;SDS011;9579;49.488;8.226;2022-08-11T06:12:43;4.13;;;3.50;;
18893;SDS011;9579;49.488;8.226;2022-08-11T06:15:31;4.53;;;4.10;;
18893;SDS011;9579;49.488;8.226;2022-08-11T06:18:28;4.55;;;3.47;;
18893;SDS011;9579;49.488;8.226;2022-08-11T06:21:18;4.20;;;3.78;;
18893;SDS011;9579;49.488;8.226;2022-08-11T06:24:09;4.05;;;3.65;;
18893;SDS011;9579;49.488;8.226;2022-08-11T06:26:58;3.78;;;3.47;;
18893;SDS011;9579;49.488;8.226;2022-08-11T06:29:48;4.65;;;3.55;;
18893;SDS011;9579;49.488;8.226;2022-08-11T06:32:38;5.57;;;3.63;;
18893;SDS011;9579;49.488;8.226;2022-08-11T06:35:30;4.15;;;3.40;;
18893;SDS011;9579;49.488;8.226;2022-08-11T06:38:37;4.40;;;3.20;;
18893;SDS011;9579;49.488;8.226;2022-08-11T06:41:45;4.22;;;3.30;;
18893;SDS011;9579;49.488;8.226;2022-08-11T06:44:38;4.07;;;3.60;;
18893;SDS011;9579;49.488;8.226;2022-08-11T06:47:27;4.55;;;3.30;;
18893;SDS011;9579;49.488;8.226;2022-08-11T06:50:15;3.63;;;3.33;;
18893;SDS011;9579;49.488;8.226;2022-08-11T06:53:21;4.55;;;3.70;;
18893;SDS011;9579;49.488;8.226;2022-08-11T06:56:10;4.15;;;3.47;;
18893;SDS011;9579;49.488;8.226;2022-08-11T06:59:16;4.35;;;3.42;;
18893;SDS011;9579;49.488;8.226;2022-08-11T07:02:23;4.35;;;3.45;;
18893;SDS011;9579;49.488;8.226;2022-08-11T07:05:20;5.28;;;3.42;;
18893;SDS011;9579;49.488;8.226;2022-08-11T07:08:16;3.70;;;3.40;;
18893;SDS011;9579;49.488;8.226;2022-08-11T07:15:16;3.55;;;3.25;;
18893;SDS011;9579;49.488;8.226;2022-08-11T07:18:23;3.50;;;3.20;;
18893;SDS011;9579;49.488;8.226;2022-08-11T07:21:30;3.70;;;3.40;;
18893;SDS011;9579;49.488;8.226;2022-08-11T07:24:37;3.60;;;3.30;;
18893;SDS011;9579;49.488;8.226;2022-08-11T07:27:45;4.40;;;2.95;;
18893;SDS011;9579;49.488;8.226;2022-08-11T07:30:52;3.30;;;3.10;;
18893;SDS011;9579;49.488;8.226;2022-08-11T07:33:44;3.63;;;3.30;;
18893;SDS011;9579;49.488;8.226;2022-08-11T07:36:38;3.65;;;3.35;;
18893;SDS011;9579;49.488;8.226;2022-08-11T07:39:35;4.45;;;3.38;;
18893;SDS011;9579;49.488;8.226;2022-08-11T07:42:26;3.22;;;2.92;;
18893;SDS011;9579;49.488;8.226;2022-08-11T07:45:17;3.92;;;3.13;;
18893;SDS011;9579;49.488;8.226;2022-08-11T07:48:21;3.40;;;3.10;;
18893;SDS011;9579;49.488;8.226;2022-08-11T07:51:26;3.67;;;3.20;;
18893;SDS011;9579;49.488;8.226;2022-08-11T07:54:31;3.38;;;3.08;;
18893;SDS011;9579;49.488;8.226;2022-08-11T07:57:18;5.00;;;3.10;;
18893;SDS011;9579;49.488;8.226;2022-08-11T08:00:24;3.83;;;3.40;;
18893;SDS011;9579;49.488;8.226;2022-08-11T08:03:29;5.32;;;3.60;;
18893;SDS011;9579;49.488;8.226;2022-08-11T08:06:34;6.13;;;3.80;;
18893;SDS011;9579;49.488;8.226;2022-08-11T08:13:23;4.93;;;3.30;;
18893;SDS011;9579;49.488;8.226;2022-08-11T08:16:29;5.10;;;3.17;;
18893;SDS011;9579;49.488;8.226;2022-08-11T08:19:34;5.13;;;3.53;;
18893;SDS011;9579;49.488;8.226;2022-08-11T08:22:22;7.70;;;3.35;;
18893;SDS011;9579;49.488;8.226;2022-08-11T08:25:09;3.83;;;3.22;;
18893;SDS011;9579;49.488;8.226;2022-08-11T08:27:58;5.32;;;3.30;;
18893;SDS011;9579;49.488;8.226;2022-08-11T08:30:46;4.10;;;3.20;;
18893;SDS011;9579;49.488;8.226;2022-08-11T08:33:37;5.63;;;3.53;;
18893;SDS011;9579;49.488;8.226;2022-08-11T08:36:27;7.38;;;3.60;;
18893;SDS011;9579;49.488;8.226;2022-08-11T08:39:14;4.50;;;3.30;;
18893;SDS011;9579;49.488;8.226;2022-08-11T08:42:07;6.78;;;3.65;;
18893;SDS011;9579;49.488;8.226;2022-08-11T08:44:57;3.60;;;3.30;;
18893;SDS011;9579;49.488;8.226;2022-08-11T08:47:51;3.50;;;3.20;;
18893;SDS011;9579;49.488;8.226;2022-08-11T08:50:51;6.57;;;3.15;;
18893;SDS011;9579;49.488;8.226;2022-08-11T08:53:59;5.72;;;3.42;;
18893;SDS011;9579;49.488;8.226;2022-08-11T08:56:51;10.85;;;4.45;;
18893;SDS011;9579;49.488;8.226;2022-08-11T08:59:43;5.70;;;3.30;;
18893;SDS011;9579;49.488;8.226;2022-08-11T09:02:32;3.60;;;3.30;;
18893;SDS011;9579;49.488;8.226;2022-08-11T09:05:20;4.00;;;3.47;;
18893;SDS011;9579;49.488;8.226;2022-08-11T09:08:11;4.28;;;3.40;;
18893;SDS011;9579;49.488;8.226;2022-08-11T09:10:58;3.95;;;3.55;;
18893;SDS011;9579;49.488;8.226;2022-08-11T09:14:04;5.82;;;3.38;;
18893;SDS011;9579;49.488;8.226;2022-08-11T09:16:51;3.53;;;3.22;;
18893;SDS011;9579;49.488;8.226;2022-08-11T09:19:39;6.30;;;3.53;;
18893;SDS011;9579;49.488;8.226;2022-08-11T09:22:27;5.38;;;3.20;;
18893;SDS011;9579;49.488;8.226;2022-08-11T09:25:35;3.90;;;3.40;;
18893;SDS011;9579;49.488;8.226;2022-08-11T09:28:41;3.47;;;3.20;;
18893;SDS011;9579;49.488;8.226;2022-08-11T09:31:29;4.93;;;3.30;;
18893;SDS011;9579;49.488;8.226;2022-08-11T09:34:18;5.07;;;3.08;;
18893;SDS011;9579;49.488;8.226;2022-08-11T09:37:05;3.33;;;3.03;;
18893;SDS011;9579;49.488;8.226;2022-08-11T09:40:12;3.40;;;3.00;;
18893;SDS011;9579;49.488;8.226;2022-08-11T09:43:17;3.85;;;3.03;;
18893;SDS011;9579;49.488;8.226;2022-08-11T09:46:23;3.42;;;2.95;;
18893;SDS011;9579;49.488;8.226;2022-08-11T09:49:13;3.10;;;2.80;;
18893;SDS011;9579;49.488;8.226;2022-08-11T09:52:00;4.85;;;2.88;;
18893;SDS011;9579;49.488;8.226;2022-08-11T09:54:51;5.50;;;3.22;;
18893;SDS011;9579;49.488;8.226;2022-08-11T09:57:40;6.25;;;4.18;;
18893;SDS011;9579;49.488;8.226;2022-08-11T10:00:50;7.07;;;3.45;;
18893;SDS011;9579;49.488;8.226;2022-08-11T10:03:42;5.32;;;2.80;;
18893;SDS011;9579;49.488;8.226;2022-08-11T10:06:29;3.65;;;2.53;;
18893;SDS011;9579;49.488;8.226;2022-08-11T10:09:36;6.60;;;3.70;;
18893;SDS011;9579;49.488;8.226;2022-08-11T10:12:25;5.47;;;3.47;;
18893;SDS011;9579;49.488;8.226;2022-08-11T10:15:18;5.53;;;3.47;;
18893;SDS011;9579;49.488;8.226;2022-08-11T10:18:32;3.50;;;2.72;;
18893;SDS011;9579;49.488;8.226;2022-08-11T10:21:35;4.90;;;3.00;;
18893;SDS011;9579;49.488;8.226;2022-08-11T10:24:25;3.88;;;2.92;;
18893;SDS011;9579;49.488;8.226;2022-08-11T10:27:30;3.55;;;2.90;;
18893;SDS011;9579;49.488;8.226;2022-08-11T10:30:17;4.20;;;3.10;;
18893;SDS011;9579;49.488;8.226;2022-08-11T10:33:22;3.50;;;2.80;;
18893;SDS011;9579;49.488;8.226;2022-08-11T10:36:29;2.70;;;2.50;;
18893;SDS011;9579;49.488;8.226;2022-08-11T10:39:19;4.90;;;2.80;;
18893;SDS011;9579;49.488;8.226;2022-08-11T10:42:07;3.00;;;2.80;;
18893;SDS011;9579;49.488;8.226;2022-08-11T10:45:13;3.22;;;2.92;;
18893;SDS011;9579;49.488;8.226;2022-08-11T10:48:19;2.75;;;2.55;;
18893;SDS011;9579;49.488;8.226;2022-08-11T10:51:07;8.57;;;3.42;;
18893;SDS011;9579;49.488;8.226;2022-08-11T10:54:03;4.80;;;2.80;;
18893;SDS011;9579;49.488;8.226;2022-08-11T10:57:08;4.40;;;2.80;;
18893;SDS011;9579;49.488;8.226;2022-08-11T11:00:14;4.68;;;2.78;;
18893;SDS011;9579;49.488;8.226;2022-08-11T11:03:03;2.90;;;2.70;;
18893;SDS011;9579;49.488;8.226;2022-08-11T11:05:53;4.50;;;2.67;;
18893;SDS011;9579;49.488;8.226;2022-08-11T11:08:46;8.57;;;2.90;;
18893;SDS011;9579;49.488;8.226;2022-08-11T11:11:44;5.13;;;3.00;;
18893;SDS011;9579;49.488;8.226;2022-08-11T11:14:52;4.10;;;2.90;;
18893;SDS011;9579;49.488;8.226;2022-08-11T11:18:00;5.60;;;2.67;;
18893;SDS011;9579;49.488;8.226;2022-08-11T11:20:52;2.95;;;2.70;;
18893;SDS011;9579;49.488;8.226;2022-08-11T11:23:42;3.22;;;2.55;;
18893;SDS011;9579;49.488;8.226;2022-08-11T11:26:39;4.90;;;2.40;;
18893;SDS011;9579;49.488;8.226;2022-08-11T11:29:50;3.72;;;2.55;;
18893;SDS011;9579;49.488;8.226;2022-08-11T11:32:46;3.00;;;2.70;;
18893;SDS011;9579;49.488;8.226;2022-08-11T11:35:46;3.38;;;2.67;;
18893;SDS011;9579;49.488;8.226;2022-08-11T11:38:39;2.67;;;2.47;;
18893;SDS011;9579;49.488;8.226;2022-08-11T11:41:27;6.47;;;3.05;;
18893;SDS011;9579;49.488;8.226;2022-08-11T11:44:15;7.50;;;2.45;;
18893;SDS011;9579;49.488;8.226;2022-08-11T11:47:03;3.22;;;2.40;;
18893;SDS011;9579;49.488;8.226;2022-08-11T11:49:52;3.20;;;2.80;;
18893;SDS011;9579;49.488;8.226;2022-08-11T11:52:40;12.35;;;3.55;;
18893;SDS011;9579;49.488;8.226;2022-08-11T11:55:28;7.13;;;3.17;;
18893;SDS011;9579;49.488;8.226;2022-08-11T11:58:16;5.13;;;2.80;;
18893;SDS011;9579;49.488;8.226;2022-08-11T12:01:23;5.68;;;2.53;;
18893;SDS011;9579;49.488;8.226;2022-08-11T12:04:11;4.18;;;2.97;;
18893;SDS011;9579;49.488;8.226;2022-08-11T12:07:00;2.75;;;2.55;;
18893;SDS011;9579;49.488;8.226;2022-08-11T12:10:02;4.93;;;2.63;;
18893;SDS011;9579;49.488;8.226;2022-08-11T12:12:50;3.42;;;2.88;;
18893;SDS011;9579;49.488;8.226;2022-08-11T12:15:55;3.97;;;2.67;;
18893;SDS011;9579;49.488;8.226;2022-08-11T12:18:49;6.20;;;2.75;;
18893;SDS011;9579;49.488;8.226;2022-08-11T12:21:38;9.25;;;3.53;;
18893;SDS011;9579;49.488;8.226;2022-08-11T12:24:48;3.63;;;2.60;;
18893;SDS011;9579;49.488;8.226;2022-08-11T12:28:01;3.28;;;2.83;;
18893;SDS011;9579;49.488;8.226;2022-08-11T12:30:48;3.13;;;2.92;;
18893;SDS011;9579;49.488;8.226;2022-08-11T12:33:38;3.95;;;2.72;;
18893;SDS011;9579;49.488;8.226;2022-08-11T12:36:29;4.50;;;2.78;;
18893;SDS011;9579;49.488;8.226;2022-08-11T12:39:22;4.18;;;2.80;;
18893;SDS011;9579;49.488;8.226;2022-08-11T12:42:32;3.22;;;2.78;;
18893;SDS011;9579;49.488;8.226;2022-08-11T12:45:37;3.63;;;2.90;;
18893;SDS011;9579;49.488;8.226;2022-08-11T12:48:29;3.35;;;2.70;;
18893;SDS011;9579;49.488;8.226;2022-08-11T12:51:37;2.83;;;2.63;;
18893;SDS011;9579;49.488;8.226;2022-08-11T12:54:45;3.95;;;2.80;;
18893;SDS011;9579;49.488;8.226;2022-08-11T12:57:36;3.40;;;3.13;;
18893;SDS011;9579;49.488;8.226;2022-08-11T13:00:44;3.67;;;2.72;;
18893;SDS011;9579;49.488;8.226;2022-08-11T13:03:50;5.18;;;3.10;;
18893;SDS011;9579;49.488;8.226;2022-08-11T13:06:56;5.00;;;2.83;;
18893;SDS011;9579;49.488;8.226;2022-08-11T13:09:44;3.13;;;2.88;;
18893;SDS011;9579;49.488;8.226;2022-08-11T13:12:32;3.00;;;2.80;;
18893;SDS011;9579;49.488;8.226;2022-08-11T13:15:34;3.17;;;2.80;;
18893;SDS011;9579;49.488;8.226;2022-08-11T13:18:23;3.28;;;2.75;;
18893;SDS011;9579;49.488;8.226;2022-08-11T13:21:12;4.13;;;2.80;;
18893;SDS011;9579;49.488;8.226;2022-08-11T13:24:01;4.57;;;3.00;;
18893;SDS011;9579;49.488;8.226;2022-08-11T13:26:49;3.53;;;2.90;;
18893;SDS011;9579;49.488;8.226;2022-08-11T13:29:37;3.50;;;3.20;;
18893;SDS011;9579;49.488;8.226;2022-08-11T13:32:31;3.13;;;2.72;;
18893;SDS011;9579;49.488;8.226;2022-08-11T13:35:18;3.83;;;3.10;;
18893;SDS011;9579;49.488;8.226;2022-08-11T13:38:07;3.47;;;3.17;;
18893;SDS011;9579;49.488;8.226;2022-08-11T13:40:57;4.32;;;3.30;;
18893;SDS011;9579;49.488;8.226;2022-08-11T13:43:45;4.18;;;3.25;;
18893;SDS011;9579;49.488;8.226;2022-08-11T13:46:32;3.28;;;3.05;;
18893;SDS011;9579;49.488;8.226;2022-08-11T13:49:20;3.30;;;3.03;;
18893;SDS011;9579;49.488;8.226;2022-08-11T13:52:09;3.42;;;3.05;;
18893;SDS011;9579;49.488;8.226;2022-08-11T13:54:58;3.15;;;2.90;;
18893;SDS011;9579;49.488;8.226;2022-08-11T13:57:49;3.60;;;3.03;;
18893;SDS011;9579;49.488;8.226;2022-08-11T14:00:38;3.40;;;3.10;;
18893;SDS011;9579;49.488;8.226;2022-08-11T14:03:26;6.25;;;3.28;;
18893;SDS011;9579;49.488;8.226;2022-08-11T14:06:17;4.05;;;2.92;;
18893;SDS011;9579;49.488;8.226;2022-08-11T14:09:07;3.85;;;3.17;;
18893;SDS011;9579;49.488;8.226;2022-08-11T14:11:55;4.68;;;3.20;;
18893;SDS011;9579;49.488;8.226;2022-08-11T14:15:06;4.00;;;3.20;;
18893;SDS011;9579;49.488;8.226;2022-08-11T14:18:05;3.53;;;3.20;;
18893;SDS011;9579;49.488;8.226;2022-08-11T14:20:55;5.88;;;3.30;;
18893;SDS011;9579;49.488;8.226;2022-08-11T14:24:02;3.35;;;3.05;;
18893;SDS011;9579;49.488;8.226;2022-08-11T14:26:50;4.13;;;2.92;;
18893;SDS011;9579;49.488;8.226;2022-08-11T14:29:39;3.60;;;3.13;;
18893;SDS011;9579;49.488;8.226;2022-08-11T14:32:29;3.50;;;3.20;;
18893;SDS011;9579;49.488;8.226;2022-08-11T14:35:17;3.22;;;3.03;;
18893;SDS011;9579;49.488;8.226;2022-08-11T14:38:04;3.30;;;3.00;;
18893;SDS011;9579;49.488;8.226;2022-08-11T14:40:54;3.45;;;3.25;;
18893;SDS011;9579;49.488;8.226;2022-08-11T14:43:59;3.33;;;3.10;;
18893;SDS011;9579;49.488;8.226;2022-08-11T14:47:04;4.53;;;3.00;;
18893;SDS011;9579;49.488;8.226;2022-08-11T14:49:53;4.20;;;3.03;;
18893;SDS011;9579;49.488;8.226;2022-08-11T14:52:43;3.90;;;2.90;;
18893;SDS011;9579;49.488;8.226;2022-08-11T14:55:35;3.50;;;2.92;;
18893;SDS011;9579;49.488;8.226;2022-08-11T14:58:41;4.65;;;3.20;;
18893;SDS011;9579;49.488;8.226;2022-08-11T15:01:28;4.15;;;2.78;;
18893;SDS011;9579;49.488;8.226;2022-08-11T15:04:44;3.25;;;3.05;;
18893;SDS011;9579;49.488;8.226;2022-08-11T15:07:33;3.28;;;2.90;;
18893;SDS011;9579;49.488;8.226;2022-08-11T15:10:21;4.30;;;2.70;;
18893;SDS011;9579;49.488;8.226;2022-08-11T15:13:09;3.90;;;2.78;;
18893;SDS011;9579;49.488;8.226;2022-08-11T15:15:57;2.88;;;2.65;;
18893;SDS011;9579;49.488;8.226;2022-08-11T15:18:58;3.28;;;2.97;;
18893;SDS011;9579;49.488;8.226;2022-08-11T15:21:46;3.03;;;2.83;;
18893;SDS011;9579;49.488;8.226;2022-08-11T15:24:52;3.28;;;2.90;;
18893;SDS011;9579;49.488;8.226;2022-08-11T15:27:39;5.55;;;3.03;;
18893;SDS011;9579;49.488;8.226;2022-08-11T15:30:45;3.67;;;3.10;;
18893;SDS011;9579;49.488;8.226;2022-08-11T15:33:54;3.78;;;2.78;;
18893;SDS011;9579;49.488;8.226;2022-08-11T15:37:07;3.33;;;3.00;;
18893;SDS011;9579;49.488;8.226;2022-08-11T15:40:17;3.13;;;2.58;;
18893;SDS011;9579;49.488;8.226;2022-08-11T15:43:27;3.83;;;2.67;;
18893;SDS011;9579;49.488;8.226;2022-08-11T15:46:37;2.78;;;2.40;;
18893;SDS011;9579;49.488;8.226;2022-08-11T15:49:28;2.50;;;2.40;;
18893;SDS011;9579;49.488;8.226;2022-08-11T15:52:20;3.60;;;2.45;;
18893;SDS011;9579;49.488;8.226;2022-08-11T15:55:10;2.60;;;2.22;;
18893;SDS011;9579;49.488;8.226;2022-08-11T15:58:00;2.70;;;2.50;;
18893;SDS011;9579;49.488;8.226;2022-08-11T16:01:06;4.00;;;2.50;;
18893;SDS011;9579;49.488;8.226;2022-08-11T16:04:13;2.72;;;2.53;;
18893;SDS011;9579;49.488;8.226;2022-08-11T16:07:04;3.67;;;2.30;;
18893;SDS011;9579;49.488;8.226;2022-08-11T16:09:56;3.97;;;2.72;;
18893;SDS011;9579;49.488;8.226;2022-08-11T16:12:49;2.90;;;2.70;;
18893;SDS011;9579;49.488;8.226;2022-08-11T16:15:54;3.65;;;2.60;;
18893;SDS011;9579;49.488;8.226;2022-08-11T16:19:01;2.95;;;2.40;;
18893;SDS011;9579;49.488;8.226;2022-08-11T16:21:50;3.25;;;2.55;;
18893;SDS011;9579;49.488;8.226;2022-08-11T16:24:43;2.83;;;2.40;;
18893;SDS011;9579;49.488;8.226;2022-08-11T16:27:30;2.88;;;2.55;;
18893;SDS011;9579;49.488;8.226;2022-08-11T16:30:20;2.63;;;2.42;;
18893;SDS011;9579;49.488;8.226;2022-08-11T16:33:10;3.10;;;2.45;;
18893;SDS011;9579;49.488;8.226;2022-08-11T16:35:58;7.78;;;2.65;;
18893;SDS011;9579;49.488;8.226;2022-08-11T16:39:03;3.00;;;2.70;;
18893;SDS011;9579;49.488;8.226;2022-08-11T16:41:51;2.83;;;2.63;;
18893;SDS011;9579;49.488;8.226;2022-08-11T16:44:56;2.88;;;2.58;;
18893;SDS011;9579;49.488;8.226;2022-08-11T16:48:12;3.53;;;2.70;;
18893;SDS011;9579;49.488;8.226;2022-08-11T16:51:00;2.70;;;2.50;;
18893;SDS011;9579;49.488;8.226;2022-08-11T16:53:48;4.40;;;2.70;;
18893;SDS011;9579;49.488;8.226;2022-08-11T16:56:37;2.92;;;2.60;;
18893;SDS011;9579;49.488;8.226;2022-08-11T16:59:28;2.92;;;2.63;;
18893;SDS011;9579;49.488;8.226;2022-08-11T17:02:20;2.72;;;2.50;;
18893;SDS011;9579;49.488;8.226;2022-08-11T17:05:24;2.75;;;2.13;;
18893;SDS011;9579;49.488;8.226;2022-08-11T17:08:31;3.28;;;2.63;;
18893;SDS011;9579;49.488;8.226;2022-08-11T17:11:41;2.50;;;2.30;;
18893;SDS011;9579;49.488;8.226;2022-08-11T17:14:51;2.80;;;2.60;;
18893;SDS011;9579;49.488;8.226;2022-08-11T17:17:43;2.83;;;2.40;;
18893;SDS011;9579;49.488;8.226;2022-08-11T17:20:33;4.03;;;2.50;;
18893;SDS011;9579;49.488;8.226;2022-08-11T17:23:22;4.13;;;2.50;;
18893;SDS011;9579;49.488;8.226;2022-08-11T17:26:29;2.53;;;2.33;;
18893;SDS011;9579;49.488;8.226;2022-08-11T17:29:33;4.50;;;2.70;;
18893;SDS011;9579;49.488;8.226;2022-08-11T17:32:25;2.72;;;2.53;;
18893;SDS011;9579;49.488;8.226;2022-08-11T17:35:36;2.53;;;2.30;;
18893;SDS011;9579;49.488;8.226;2022-08-11T17:38:28;4.03;;;2.50;;
18893;SDS011;9579;49.488;8.226;2022-08-11T17:41:18;2.60;;;2.40;;
18893;SDS011;9579;49.488;8.226;2022-08-11T17:44:24;3.00;;;2.35;;
18893;SDS011;9579;49.488;8.226;2022-08-11T17:47:30;2.97;;;2.50;;
18893;SDS011;9579;49.488;8.226;2022-08-11T17:50:37;2.67;;;2.30;;
18893;SDS011;9579;49.488;8.226;2022-08-11T17:53:26;2.90;;;2.70;;
18893;SDS011;9579;49.488;8.226;2022-08-11T17:56:36;4.00;;;2.22;;
18893;SDS011;9579;49.488;8.226;2022-08-11T17:59:41;3.63;;;2.60;;
18893;SDS011;9579;49.488;8.226;2022-08-11T18:02:39;4.97;;;2.70;;
18893;SDS011;9579;49.488;8.226;2022-08-11T18:05:48;4.18;;;2.35;;
18893;SDS011;9579;49.488;8.226;2022-08-11T18:08:37;5.85;;;2.47;;
18893;SDS011;9579;49.488;8.226;2022-08-11T18:11:44;3.58;;;2.20;;
18893;SDS011;9579;49.488;8.226;2022-08-11T18:14:51;4.88;;;2.50;;
18893;SDS011;9579;49.488;8.226;2022-08-11T18:17:58;3.15;;;2.40;;
18893;SDS011;9579;49.488;8.226;2022-08-11T18:21:04;2.90;;;2.53;;
18893;SDS011;9579;49.488;8.226;2022-08-11T18:24:09;2.53;;;2.33;;
18893;SDS011;9579;49.488;8.226;2022-08-11T18:27:17;4.55;;;2.50;;
18893;SDS011;9579;49.488;8.226;2022-08-11T18:30:24;4.38;;;2.42;;
18893;SDS011;9579;49.488;8.226;2022-08-11T18:33:32;2.85;;;2.42;;
18893;SDS011;9579;49.488;8.226;2022-08-11T18:36:44;3.63;;;2.60;;
18893;SDS011;9579;49.488;8.226;2022-08-11T18:39:55;4.70;;;2.85;;
18893;SDS011;9579;49.488;8.226;2022-08-11T18:43:02;3.90;;;2.55;;
18893;SDS011;9579;49.488;8.226;2022-08-11T18:46:10;2.97;;;2.60;;
18893;SDS011;9579;49.488;8.226;2022-08-11T18:49:20;2.58;;;2.38;;
18893;SDS011;9579;49.488;8.226;2022-08-11T18:52:30;2.67;;;2.47;;
18893;SDS011;9579;49.488;8.226;2022-08-11T18:55:37;3.28;;;2.25;;
18893;SDS011;9579;49.488;8.226;2022-08-11T18:58:44;3.70;;;2.40;;
18893;SDS011;9579;49.488;8.226;2022-08-11T19:01:50;2.92;;;2.60;;
18893;SDS011;9579;49.488;8.226;2022-08-11T19:04:57;3.75;;;2.45;;
18893;SDS011;9579;49.488;8.226;2022-08-11T19:08:06;4.50;;;2.90;;
18893;SDS011;9579;49.488;8.226;2022-08-11T19:11:13;2.92;;;2.60;;
18893;SDS011;9579;49.488;8.226;2022-08-11T19:14:19;2.70;;;2.50;;
18893;SDS011;9579;49.488;8.226;2022-08-11T19:17:25;4.72;;;2.60;;
18893;SDS011;9579;49.488;8.226;2022-08-11T19:20:32;5.72;;;3.38;;
18893;SDS011;9579;49.488;8.226;2022-08-11T19:23:40;3.28;;;2.97;;
18893;SDS011;9579;49.488;8.226;2022-08-11T19:26:48;3.50;;;2.83;;
18893;SDS011;9579;49.488;8.226;2022-08-11T19:29:55;3.67;;;2.72;;
18893;SDS011;9579;49.488;8.226;2022-08-11T19:33:02;3.90;;;2.63;;
18893;SDS011;9579;49.488;8.226;2022-08-11T19:36:07;3.58;;;2.80;;
18893;SDS011;9579;49.488;8.226;2022-08-11T19:39:14;5.20;;;2.50;;
18893;SDS011;9579;49.488;8.226;2022-08-11T19:42:19;3.55;;;2.67;;
18893;SDS011;9579;49.488;8.226;2022-08-11T19:45:24;3.33;;;2.78;;
18893;SDS011;9579;49.488;8.226;2022-08-11T19:48:30;4.07;;;2.80;;
18893;SDS011;9579;49.488;8.226;2022-08-11T19:51:36;3.53;;;2.70;;
18893;SDS011;9579;49.488;8.226;2022-08-11T19:54:42;3.63;;;2.83;;
18893;SDS011;9579;49.488;8.226;2022-08-11T19:57:49;3.00;;;2.72;;
18893;SDS011;9579;49.488;8.226;2022-08-11T20:00:54;3.30;;;2.90;;
18893;SDS011;9579;49.488;8.226;2022-08-11T20:03:58;3.47;;;3.10;;
18893;SDS011;9579;49.488;8.226;2022-08-11T20:07:03;3.97;;;3.08;;
18893;SDS011;9579;49.488;8.226;2022-08-11T20:10:11;3.40;;;3.10;;
18893;SDS011;9579;49.488;8.226;2022-08-11T20:13:18;3.42;;;3.15;;
18893;SDS011;9579;49.488;8.226;2022-08-11T20:16:25;3.53;;;2.97;;
18893;SDS011;9579;49.488;8.226;2022-08-11T20:19:32;3.78;;;3.10;;
18893;SDS011;9579;49.488;8.226;2022-08-11T20:22:40;4.05;;;3.10;;
18893;SDS011;9579;49.488;8.226;2022-08-11T20:25:47;3.38;;;2.92;;
18893;SDS011;9579;49.488;8.226;2022-08-11T20:28:53;5.22;;;3.10;;
18893;SDS011;9579;49.488;8.226;2022-08-11T20:32:00;4.05;;;3.28;;
18893;SDS011;9579;49.488;8.226;2022-08-11T20:35:05;3.38;;;2.90;;
18893;SDS011;9579;49.488;8.226;2022-08-11T20:38:11;3.70;;;3.00;;
18893;SDS011;9579;49.488;8.226;2022-08-11T20:41:19;3.22;;;2.92;;
18893;SDS011;9579;49.488;8.226;2022-08-11T20:44:25;3.10;;;2.80;;
18893;SDS011;9579;49.488;8.226;2022-08-11T20:47:31;3.80;;;3.03;;
18893;SDS011;9579;49.488;8.226;2022-08-11T20:50:39;3.03;;;2.67;;
18893;SDS011;9579;49.488;8.226;2022-08-11T20:53:45;3.78;;;3.17;;
18893;SDS011;9579;49.488;8.226;2022-08-11T20:56:52;2.90;;;2.70;;
18893;SDS011;9579;49.488;8.226;2022-08-11T20:59:58;3.72;;;2.80;;
18893;SDS011;9579;49.488;8.226;2022-08-11T21:03:04;3.22;;;2.92;;
18893;SDS011;9579;49.488;8.226;2022-08-11T21:06:08;3.72;;;2.70;;
18893;SDS011;9579;49.488;8.226;2022-08-11T21:09:15;3.38;;;2.80;;
18893;SDS011;9579;49.488;8.226;2022-08-11T21:12:24;3.53;;;2.80;;
18893;SDS011;9579;49.488;8.226;2022-08-11T21:15:32;4.45;;;2.97;;
18893;SDS011;9579;49.488;8.226;2022-08-11T21:18:42;6.28;;;2.80;;
18893;SDS011;9579;49.488;8.226;2022-08-11T21:21:51;4.63;;;2.90;;
18893;SDS011;9579;49.488;8.226;2022-08-11T21:24:56;4.55;;;2.78;;
18893;SDS011;9579;49.488;8.226;2022-08-11T21:28:05;3.80;;;3.13;;
18893;SDS011;9579;49.488;8.226;2022-08-11T21:31:12;4.10;;;3.13;;
18893;SDS011;9579;49.488;8.226;2022-08-11T21:34:19;3.10;;;2.80;;
18893;SDS011;9579;49.488;8.226;2022-08-11T21:37:25;3.95;;;3.20;;
18893;SDS011;9579;49.488;8.226;2022-08-11T21:40:31;3.60;;;2.88;;
18893;SDS011;9579;49.488;8.226;2022-08-11T21:43:37;4.80;;;2.78;;
18893;SDS011;9579;49.488;8.226;2022-08-11T21:46:43;3.67;;;3.15;;
18893;SDS011;9579;49.488;8.226;2022-08-11T21:49:49;3.97;;;2.92;;
18893;SDS011;9579;49.488;8.226;2022-08-11T21:52:54;4.63;;;3.08;;
18893;SDS011;9579;49.488;8.226;2022-08-11T21:56:00;5.78;;;2.80;;
18893;SDS011;9579;49.488;8.226;2022-08-11T21:59:07;4.30;;;2.83;;
18893;SDS011;9579;49.488;8.226;2022-08-11T22:02:14;3.13;;;2.90;;
18893;SDS011;9579;49.488;8.226;2022-08-11T22:05:18;2.90;;;2.70;;
18893;SDS011;9579;49.488;8.226;2022-08-11T22:08:23;3.22;;;2.55;;
18893;SDS011;9579;49.488;8.226;2022-08-11T22:11:28;3.15;;;2.78;;
18893;SDS011;9579;49.488;8.226;2022-08-11T22:14:34;3.88;;;2.72;;
18893;SDS011;9579;49.488;8.226;2022-08-11T22:17:39;3.20;;;2.90;;
18893;SDS011;9579;49.488;8.226;2022-08-11T22:20:44;4.45;;;2.85;;
18893;SDS011;9579;49.488;8.226;2022-08-11T22:23:49;3.90;;;2.72;;
18893;SDS011;9579;49.488;8.226;2022-08-11T22:26:54;2.88;;;2.65;;
18893;SDS011;9579;49.488;8.226;2022-08-11T22:30:00;2.75;;;2.55;;
18893;SDS011;9579;49.488;8.226;2022-08-11T22:33:05;4.13;;;2.63;;
18893;SDS011;9579;49.488;8.226;2022-08-11T22:36:10;2.97;;;2.75;;
18893;SDS011;9579;49.488;8.226;2022-08-11T22:39:17;3.10;;;2.80;;
18893;SDS011;9579;49.488;8.226;2022-08-11T22:42:22;3.47;;;2.85;;
